Meteo Giornale » Osservazioni meteo Stati Uniti (USA) » York York

ore: 20:53 - Osservazioni Meteo York York
Lat. 39° 55' N Lon. 76° 52' W Alt. 146 metri s.l.m.

sereno

23 °C

Sereno

Temp. 24 Ore

19 °C

28 °C

Sud/Sud-Est

7.4 Km/h

Dew point 21 °C

Umidità 88 %

Visibilità  10 Km

Il sole sorge alle ore 06:34

Il sole tramonta alle ore 19:40

Data e Ora Cielo e Fenomeni T °C DP °C Um. % Pres. hPa Vis. km Vento km/h
Oggi h: 20:53 sereno Sereno 23 21 88 1018 10 S/SE 7.4
Oggi h: 19:53 sereno Sereno 24 21 83 1018 10 N 0
Oggi h: 18:53 sereno Sereno 27 21 69 1018 10 N 0
Oggi h: 17:53 sereno Sereno 27 21 69 1018 10 O/SO 7.4
Oggi h: 16:53 poco_nuvoloso Poco Nuvoloso 28 21 65 1019 10 SO 9.3
Oggi h: 15:53 coperto Coperto 28 20 61 1019 10 N 0
Oggi h: 14:53 molto_nuvoloso Molto Nuvoloso 28 20 61 1019 10 N 0
Oggi h: 13:53 molto_nuvoloso Molto Nuvoloso 27 19 61 1020 10 N 0
Oggi h: 11:53 coperto Coperto 26 19 65 1020 10 SE 9.3
Oggi h: 10:53 nuvoloso Nuvoloso 25 19 69 1020 10 E 9.3
Oggi h: 09:53 nuvoloso Nuvoloso 25 20 73 1021 10 E/NE 9.3
Oggi h: 08:53 coperto Coperto 22 21 94 1020 13 N 0
Oggi h: 07:53 coperto Coperto 21 20 94 1020 11 N 0
Oggi h: 06:53 foschia Foschia 20 19 93 1020 10 N 0
Oggi h: 05:53 nuvoloso Nuvoloso 19 19 100 1019 11 N 0
Oggi h: 04:53 foschia Foschia 19 19 100 1019 8 N 0
Oggi h: 02:53 coperto Coperto 22 21 94 1019 10 N 0
Oggi h: 01:53 foschia Foschia 21 21 100 1019 10 N 5.5
Ieri h: 23:53 molto_nuvoloso Molto Nuvoloso 23 22 94 1019 10 N 0
Ieri h: 22:53 coperto_pioggia Pioggia 23 21 88 1020 10 N 0